Time;durP1;ratioP1;P1;durP2;ratioP2;P2;SDS_P1;SDS_P2;PMS_P1;PMS_P2;Temp;Humidity;BMP_temperature;BMP_pressure;BME280_temperature;BME280_humidity;BME280_pressure;Samples;Min_cycle;Max_cycle;Signal;HPM_P1;HPM_P2
2023/02/23 00:01:11;;;;;;;43.43;36.00;;;12.00;99.90;;;;;;5019375;28;20940;-79
2023/02/23 00:03:39;;;;;;;44.97;36.50;;;12.00;99.90;;;;;;5019851;28;20978;-78
2023/02/23 00:06:06;;;;;;;40.17;33.60;;;12.00;99.90;;;;;;5020196;28;20543;-78
2023/02/23 00:08:35;;;;;;;41.93;36.47;;;12.00;99.90;;;;;;5020960;28;20438;-78
2023/02/23 00:11:04;;;;;;;41.33;35.73;;;12.00;99.90;;;;;;5021242;28;20491;-79
2023/02/23 00:13:31;;;;;;;41.13;35.00;;;12.00;99.90;;;;;;5021522;28;20495;-79
2023/02/23 00:15:58;;;;;;;39.73;34.40;;;12.00;99.90;;;;;;5021487;28;20478;-79
2023/02/23 00:18:28;;;;;;;40.50;33.87;;;12.00;99.90;;;;;;5021527;28;20448;-79
2023/02/23 00:20:57;;;;;;;39.60;34.13;;;11.90;99.90;;;;;;5021673;28;20468;-78
2023/02/23 00:23:26;;;;;;;41.33;33.00;;;11.90;99.90;;;;;;5021743;28;20443;-78
2023/02/23 00:25:54;;;;;;;40.20;34.13;;;11.90;99.90;;;;;;5021132;28;20498;-79
2023/02/23 00:28:21;;;;;;;41.50;32.30;;;12.00;99.90;;;;;;5024173;28;20459;-80
2023/02/23 00:30:48;;;;;;;39.27;34.00;;;12.00;99.90;;;;;;5024027;28;20482;-79
2023/02/23 00:33:15;;;;;;;39.60;34.30;;;12.00;99.90;;;;;;5025168;28;20447;-79
2023/02/23 00:35:42;;;;;;;41.40;33.77;;;12.00;99.90;;;;;;5024057;28;20455;-79
2023/02/23 00:38:09;;;;;;;41.53;33.57;;;12.00;99.90;;;;;;5024146;28;20455;-79
2023/02/23 00:40:41;;;;;;;36.80;32.30;;;12.00;99.90;;;;;;5023779;28;20975;-79
2023/02/23 00:43:14;;;;;;;42.70;32.93;;;12.00;99.90;;;;;;5023092;28;20438;-79
2023/02/23 00:45:40;;;;;;;41.13;33.30;;;12.00;99.90;;;;;;5022531;28;20875;-79
2023/02/23 00:48:09;;;;;;;40.40;33.70;;;11.90;99.90;;;;;;5023007;28;20459;-79
2023/02/23 00:50:40;;;;;;;41.20;35.40;;;11.90;99.90;;;;;;5022156;28;20483;-79
2023/02/23 00:53:06;;;;;;;39.10;33.63;;;12.00;99.90;;;;;;5022943;28;20527;-79
2023/02/23 00:55:41;;;;;;;39.60;34.83;;;11.90;99.90;;;;;;5022460;28;20451;-79
2023/02/23 00:58:08;;;;;;;40.33;35.60;;;11.90;99.90;;;;;;5021630;28;20439;-79
2023/02/23 01:00:42;;;;;;;37.53;33.50;;;12.00;99.90;;;;;;5021613;28;20479;-79
2023/02/23 01:03:09;;;;;;;46.30;36.37;;;11.90;99.90;;;;;;5021475;28;20434;-79
2023/02/23 01:05:36;;;;;;;40.90;35.37;;;11.90;99.90;;;;;;5021735;28;20538;-79
2023/02/23 01:08:03;;;;;;;41.67;33.37;;;11.90;99.90;;;;;;5021822;28;20960;-79
2023/02/23 01:10:30;;;;;;;40.20;33.87;;;11.90;99.90;;;;;;5021520;28;20487;-80
2023/02/23 01:12:56;;;;;;;42.20;36.30;;;11.90;99.90;;;;;;5021725;28;20526;-79
2023/02/23 01:15:23;;;;;;;49.23;40.20;;;11.80;99.90;;;;;;5021564;28;20959;-79
2023/02/23 01:18:05;;;;;;;46.03;37.87;;;11.80;99.90;;;;;;5022498;28;20451;-79
2023/02/23 01:20:35;;;;;;;47.87;37.03;;;11.80;99.90;;;;;;5020813;28;20439;-79
2023/02/23 01:23:03;;;;;;;42.70;36.20;;;11.90;99.90;;;;;;5021672;28;20467;-79
2023/02/23 01:25:30;;;;;;;39.70;33.97;;;11.80;99.90;;;;;;5021020;28;20459;-79
2023/02/23 01:27:57;;;;;;;42.93;35.60;;;11.80;99.90;;;;;;5023041;28;20447;-79
2023/02/23 01:30:24;;;;;;;46.60;38.23;;;11.80;99.90;;;;;;5024089;28;20491;-79
2023/02/23 01:32:51;;;;;;;47.27;39.60;;;11.80;99.90;;;;;;5026863;28;20431;-79
2023/02/23 01:35:19;;;;;;;44.60;36.37;;;11.80;99.90;;;;;;5022331;28;20459;-80
2023/02/23 01:37:46;;;;;;;41.73;36.03;;;11.80;99.90;;;;;;5020398;28;20475;-79
2023/02/23 01:40:27;;;;;;;44.80;37.73;;;11.80;99.90;;;;;;5021758;28;20467;-80
2023/02/23 01:42:55;;;;;;;46.43;37.07;;;11.80;99.90;;;;;;5022117;28;20439;-79
2023/02/23 01:45:29;;;;;;;44.60;38.23;;;11.80;99.90;;;;;;5021998;28;20442;-79
2023/02/23 01:48:00;;;;;;;46.47;37.00;;;11.80;99.90;;;;;;5022175;28;20443;-79
2023/02/23 01:50:33;;;;;;;44.60;36.30;;;11.70;99.90;;;;;;5022892;28;20475;-80
2023/02/23 01:52:59;;;;;;;43.47;36.10;;;11.80;99.90;;;;;;5024531;28;20915;-79
2023/02/23 01:55:28;;;;;;;42.67;36.33;;;11.70;99.90;;;;;;5024116;28;20444;-79
2023/02/23 01:58:01;;;;;;;44.20;38.10;;;11.70;99.90;;;;;;5024205;28;20443;-80
2023/02/23 02:00:30;;;;;;;40.77;35.33;;;11.70;99.90;;;;;;5024229;28;20428;-79
2023/02/23 02:02:58;;;;;;;43.93;36.60;;;11.70;99.90;;;;;;5023588;28;20509;-79
2023/02/23 02:05:26;;;;;;;42.87;35.50;;;11.70;99.90;;;;;;5022534;28;20440;-80
2023/02/23 02:07:57;;;;;;;43.57;34.60;;;11.70;99.90;;;;;;5003511;28;20979;-79
2023/02/23 02:10:45;;;;;;;40.40;34.10;;;11.70;99.90;;;;;;5003805;28;20503;-79
2023/02/23 02:13:17;;;;;;;41.60;32.93;;;11.70;99.90;;;;;;5003444;28;20530;-79
2023/02/23 02:16:04;;;;;;;42.87;35.80;;;11.60;99.90;;;;;;5004295;28;20460;-79
2023/02/23 02:18:37;;;;;;;43.90;36.87;;;11.60;99.90;;;;;;5004102;28;20484;-80
2023/02/23 02:21:38;;;;;;;44.27;38.27;;;11.60;99.90;;;;;;5002559;28;20436;-79
2023/02/23 02:24:28;;;;;;;45.13;37.43;;;11.60;99.90;;;;;;5004174;28;20444;-79
2023/02/23 02:27:10;;;;;;;47.33;34.87;;;11.60;99.90;;;;;;5009905;28;20476;-79
2023/02/23 02:30:20;;;;;;;45.30;39.20;;;11.60;99.90;;;;;;5008349;28;20475;-79
2023/02/23 02:33:33;;;;;;;45.57;38.23;;;11.60;99.90;;;;;;5003970;28;20464;-79
2023/02/23 02:36:30;;;;;;;45.10;37.43;;;11.60;99.90;;;;;;5001592;28;20976;-80
2023/02/23 02:39:09;;;;;;;52.80;41.10;;;11.60;99.90;;;;;;5003792;28;20440;-80
2023/02/23 02:41:43;;;;;;;54.10;42.23;;;11.60;99.90;;;;;;5001885;28;20428;-80
2023/02/23 02:44:15;;;;;;;51.37;40.47;;;11.60;99.90;;;;;;5002822;28;20436;-79
2023/02/23 02:46:47;;;;;;;48.23;41.50;;;11.60;99.90;;;;;;5001459;28;20472;-79
2023/02/23 02:49:19;;;;;;;51.03;41.13;;;11.60;99.90;;;;;;5003277;28;20463;-80
2023/02/23 02:51:51;;;;;;;58.07;42.60;;;11.60;99.90;;;;;;5003212;28;20472;-79
2023/02/23 02:54:25;;;;;;;51.20;40.17;;;11.60;99.90;;;;;;5004497;28;20441;-79
2023/02/23 02:56:56;;;;;;;51.10;41.50;;;11.60;99.90;;;;;;5002507;28;20492;-79
2023/02/23 04:18:17;;;;;;;57.90;44.20;;;11.10;99.90;;;;;;5001013;28;20409;-79
2023/02/23 04:20:44;;;;;;;59.97;42.77;;;11.10;99.90;;;;;;4999117;28;20967;-79
2023/02/23 04:23:11;;;;;;;55.00;42.07;;;11.10;99.90;;;;;;4998224;28;20443;-79
2023/02/23 04:25:38;;;;;;;66.03;47.83;;;11.10;99.90;;;;;;4998576;28;20864;-79
2023/02/23 04:28:06;;;;;;;59.73;43.70;;;11.10;99.90;;;;;;4998417;28;20457;-80
2023/02/23 04:30:33;;;;;;;62.80;46.07;;;11.10;99.90;;;;;;4998312;28;20428;-79
2023/02/23 04:33:00;;;;;;;58.73;43.70;;;11.10;99.90;;;;;;4998943;28;20460;-79
2023/02/23 04:35:30;;;;;;;59.63;43.53;;;11.10;99.90;;;;;;4998648;28;20467;-79
2023/02/23 04:37:57;;;;;;;56.27;43.13;;;11.10;99.90;;;;;;4999020;28;20460;-79
2023/02/23 04:40:24;;;;;;;60.80;45.23;;;11.10;99.90;;;;;;4999786;28;20460;-79
2023/02/23 04:42:51;;;;;;;59.70;44.90;;;11.10;99.90;;;;;;4999335;28;20448;-78
2023/02/23 04:45:17;;;;;;;60.97;43.70;;;11.10;99.90;;;;;;4999260;28;20906;-78
2023/02/23 04:47:44;;;;;;;64.13;44.43;;;11.10;99.90;;;;;;4998637;28;20472;-79
2023/02/23 04:50:12;;;;;;;58.10;45.57;;;11.10;99.90;;;;;;4999778;28;20468;-78
2023/02/23 04:52:41;;;;;;;66.07;46.90;;;11.10;99.90;;;;;;4999320;28;20476;-78
2023/02/23 04:55:09;;;;;;;60.90;41.83;;;11.00;99.90;;;;;;4999840;28;20944;-80
2023/02/23 04:57:36;;;;;;;62.33;45.67;;;11.00;99.90;;;;;;4999551;28;20878;-79
2023/02/23 05:00:04;;;;;;;62.37;46.20;;;11.10;99.90;;;;;;5000074;28;20898;-79
2023/02/23 05:02:30;;;;;;;56.80;43.93;;;11.10;99.90;;;;;;4999704;28;20451;-79
2023/02/23 05:04:57;;;;;;;64.87;45.43;;;11.00;99.90;;;;;;4998688;28;20451;-79
2023/02/23 05:07:24;;;;;;;58.80;43.60;;;11.00;99.90;;;;;;5015152;28;20499;-80
2023/02/23 05:09:52;;;;;;;55.43;41.30;;;11.00;99.90;;;;;;5019126;28;20455;-79
2023/02/23 05:12:19;;;;;;;58.73;43.50;;;11.10;99.90;;;;;;5019634;28;20679;-80
2023/02/23 05:14:46;;;;;;;64.73;46.87;;;11.00;99.90;;;;;;5020494;28;20447;-79
2023/02/23 05:17:13;;;;;;;61.63;43.67;;;11.00;99.90;;;;;;5020498;28;20473;-79
2023/02/23 05:19:39;;;;;;;58.93;45.47;;;11.00;99.90;;;;;;5019779;28;20452;-80
2023/02/23 05:22:11;;;;;;;58.90;44.70;;;11.00;99.90;;;;;;5019776;28;20452;-79
2023/02/23 05:24:38;;;;;;;66.37;46.67;;;11.00;99.90;;;;;;5020453;28;20506;-79
2023/02/23 05:27:06;;;;;;;56.93;44.03;;;10.90;99.90;;;;;;5020082;28;20471;-80
2023/02/23 05:29:33;;;;;;;63.80;48.47;;;10.90;99.90;;;;;;5020712;28;20424;-79
2023/02/23 05:31:59;;;;;;;60.70;45.57;;;10.90;99.90;;;;;;5020141;28;20495;-79
2023/02/23 05:34:28;;;;;;;60.03;44.30;;;10.90;99.90;;;;;;5019811;28;20459;-79
2023/02/23 05:36:54;;;;;;;62.07;45.13;;;10.90;99.90;;;;;;5019609;28;20471;-80
2023/02/23 05:39:21;;;;;;;56.03;42.87;;;10.90;99.90;;;;;;5019757;28;20795;-79
2023/02/23 05:41:49;;;;;;;68.77;46.00;;;10.90;99.90;;;;;;5020523;28;20452;-80
2023/02/23 05:44:18;;;;;;;60.33;44.87;;;10.90;99.90;;;;;;5019760;28;20860;-79
2023/02/23 05:46:46;;;;;;;59.40;43.70;;;10.90;99.90;;;;;;5019305;28;20830;-79
2023/02/23 05:49:13;;;;;;;57.53;41.27;;;10.90;99.90;;;;;;5016029;28;20444;-80
2023/02/23 05:51:40;;;;;;;57.90;41.97;;;10.80;99.90;;;;;;5015818;28;20483;-79
2023/02/23 05:54:07;;;;;;;55.87;42.07;;;10.80;99.90;;;;;;5015937;28;20436;-79
2023/02/23 05:56:34;;;;;;;55.93;42.80;;;10.80;99.90;;;;;;5016640;28;20545;-80
2023/02/23 05:59:01;;;;;;;56.13;43.00;;;10.80;99.90;;;;;;5016540;28;20444;-80
2023/02/23 06:01:29;;;;;;;50.97;42.40;;;10.80;99.90;;;;;;5016556;28;20513;-79
2023/02/23 06:03:56;;;;;;;54.97;41.30;;;10.70;99.90;;;;;;5015852;28;20923;-79
2023/02/23 06:06:24;;;;;;;53.73;41.37;;;10.70;99.90;;;;;;5016912;28;20483;-79
2023/02/23 06:08:51;;;;;;;48.83;40.90;;;10.70;99.90;;;;;;5017708;28;20452;-79
2023/02/23 06:11:18;;;;;;;55.00;43.90;;;10.70;99.90;;;;;;5017501;28;20491;-79
2023/02/23 06:13:44;;;;;;;55.93;42.70;;;10.70;99.90;;;;;;5017778;28;20832;-79
2023/02/23 06:16:14;;;;;;;53.47;42.23;;;10.70;99.90;;;;;;5017690;28;20534;-80
2023/02/23 06:18:42;;;;;;;53.23;41.70;;;10.70;99.90;;;;;;5017102;28;20916;-79
2023/02/23 06:21:09;;;;;;;54.70;42.07;;;10.70;99.90;;;;;;5018509;28;20459;-79
2023/02/23 06:23:36;;;;;;;52.40;42.07;;;10.70;99.90;;;;;;5020422;28;20881;-79
2023/02/23 06:26:03;;;;;;;60.07;40.13;;;10.70;99.90;;;;;;5018983;28;20471;-79
2023/02/23 06:28:30;;;;;;;53.90;41.33;;;10.70;99.90;;;;;;5018107;28;20455;-79
2023/02/23 06:30:57;;;;;;;56.63;42.20;;;10.60;99.90;;;;;;5018224;28;20525;-80
2023/02/23 06:33:24;;;;;;;55.70;40.80;;;10.60;99.90;;;;;;5018926;28;20451;-79
2023/02/23 06:35:53;;;;;;;57.43;41.27;;;10.60;99.90;;;;;;5018006;28;20475;-80
2023/02/23 06:38:20;;;;;;;57.13;41.00;;;10.50;99.90;;;;;;5017998;28;20452;-78
2023/02/23 06:40:50;;;;;;;56.20;41.67;;;10.60;99.90;;;;;;5017685;28;20439;-79
2023/02/23 06:43:17;;;;;;;52.60;41.33;;;10.50;99.90;;;;;;5018531;28;20461;-78
2023/02/23 06:45:44;;;;;;;52.20;40.27;;;10.50;99.90;;;;;;5018836;28;20450;-78
2023/02/23 06:48:11;;;;;;;48.43;39.57;;;10.50;99.90;;;;;;5019024;28;20439;-79
2023/02/23 06:50:38;;;;;;;55.60;43.73;;;10.50;99.90;;;;;;5017463;28;20436;-78
2023/02/23 06:53:06;;;;;;;53.73;41.57;;;10.50;99.90;;;;;;5018963;28;20489;-79
2023/02/23 06:55:33;;;;;;;53.30;41.50;;;10.50;99.90;;;;;;5019368;28;20451;-78
2023/02/23 06:58:00;;;;;;;53.50;42.50;;;10.50;99.90;;;;;;5017793;28;20428;-79
2023/02/23 07:00:29;;;;;;;51.83;38.60;;;10.60;99.90;;;;;;5017486;28;20449;-78
2023/02/23 07:02:57;;;;;;;54.30;40.40;;;10.60;99.90;;;;;;5018097;28;20457;-78
2023/02/23 07:05:23;;;;;;;51.77;39.83;;;10.60;99.90;;;;;;5018094;28;20454;-78
2023/02/23 07:07:50;;;;;;;50.00;39.47;;;10.60;99.90;;;;;;5015499;28;20960;-79
2023/02/23 07:10:19;;;;;;;47.57;38.30;;;10.60;99.90;;;;;;5015254;28;20455;-79
2023/02/23 07:12:46;;;;;;;50.00;37.50;;;10.70;99.90;;;;;;5014653;28;20472;-78
2023/02/23 07:15:17;;;;;;;46.60;37.03;;;10.70;99.90;;;;;;5014812;28;20432;-77
2023/02/23 07:17:47;;;;;;;46.10;37.27;;;10.70;99.90;;;;;;5015502;28;20475;-79
2023/02/23 07:20:15;;;;;;;44.73;36.10;;;10.70;99.90;;;;;;5016388;28;20431;-79
2023/02/23 07:22:43;;;;;;;48.70;37.87;;;10.80;99.90;;;;;;5016899;28;20830;-78
2023/02/23 07:25:10;;;;;;;45.00;36.30;;;10.80;99.90;;;;;;5018415;28;20455;-78
2023/02/23 07:27:41;;;;;;;47.07;35.67;;;10.70;99.90;;;;;;5019397;28;20475;-79
2023/02/23 07:30:09;;;;;;;46.73;35.73;;;10.70;99.90;;;;;;5024004;28;20982;-78
2023/02/23 07:32:36;;;;;;;49.27;37.27;;;10.70;99.90;;;;;;5024858;28;20487;-78
2023/02/23 07:35:03;;;;;;;45.20;35.07;;;10.70;99.90;;;;;;5025191;28;20435;-80
2023/02/23 07:37:30;;;;;;;42.80;35.13;;;10.70;99.90;;;;;;5025214;28;20478;-78
2023/02/23 07:39:58;;;;;;;42.07;35.73;;;10.70;99.90;;;;;;5024005;28;20454;-80
2023/02/23 07:42:25;;;;;;;40.67;34.23;;;10.70;99.90;;;;;;5022842;28;20430;-79
2023/02/23 07:44:53;;;;;;;43.00;34.43;;;10.70;99.90;;;;;;5023747;28;20461;-79
2023/02/23 07:47:21;;;;;;;44.00;34.47;;;10.70;99.90;;;;;;5024946;28;20475;-79
2023/02/23 07:49:48;;;;;;;40.97;34.03;;;10.70;99.90;;;;;;5021663;28;20432;-79
2023/02/23 07:52:17;;;;;;;41.97;33.97;;;10.70;99.90;;;;;;5022559;28;20471;-79
2023/02/23 07:54:44;;;;;;;38.60;33.07;;;10.70;99.90;;;;;;5021409;28;20447;-79
2023/02/23 07:57:11;;;;;;;42.47;33.70;;;10.70;99.90;;;;;;5022590;28;20478;-79
2023/02/23 07:59:38;;;;;;;39.57;33.67;;;10.70;99.90;;;;;;5022031;28;20958;-78
2023/02/23 08:02:07;;;;;;;40.53;34.00;;;10.70;99.90;;;;;;5022394;28;20459;-79
2023/02/23 08:04:34;;;;;;;38.43;32.30;;;10.70;99.90;;;;;;5021623;28;20442;-80
2023/02/23 08:07:01;;;;;;;37.10;31.97;;;10.70;99.90;;;;;;5021180;28;20517;-79
2023/02/23 08:09:29;;;;;;;38.80;31.50;;;10.70;99.90;;;;;;5021606;28;20820;-78
2023/02/23 08:11:56;;;;;;;38.00;32.70;;;10.70;99.90;;;;;;5021440;28;21005;-79
2023/02/23 08:14:23;;;;;;;36.63;31.20;;;10.80;99.90;;;;;;5020935;28;20956;-78
2023/02/23 08:16:50;;;;;;;36.20;30.60;;;10.80;99.90;;;;;;5021146;28;20451;-79
2023/02/23 08:19:21;;;;;;;39.87;32.70;;;10.80;99.90;;;;;;5021558;28;20813;-79
2023/02/23 08:21:48;;;;;;;48.67;35.20;;;10.90;99.90;;;;;;5021137;28;20443;-78
2023/02/23 08:24:15;;;;;;;50.90;35.77;;;10.90;99.90;;;;;;5022207;28;20920;-78
2023/02/23 08:26:42;;;;;;;51.60;37.53;;;10.90;99.90;;;;;;5021278;28;20483;-78
2023/02/23 08:29:10;;;;;;;55.70;38.60;;;10.90;99.90;;;;;;5021356;28;20439;-79
2023/02/23 08:31:37;;;;;;;61.37;40.43;;;11.00;99.90;;;;;;5021042;28;20439;-78
2023/02/23 08:34:04;;;;;;;60.73;41.97;;;11.00;99.90;;;;;;5021067;28;20432;-78
2023/02/23 08:36:32;;;;;;;63.07;41.07;;;11.00;99.90;;;;;;5020948;28;20826;-79
2023/02/23 08:38:59;;;;;;;70.33;43.10;;;11.00;99.90;;;;;;5020600;28;20487;-79
2023/02/23 08:41:26;;;;;;;62.07;40.60;;;11.00;99.90;;;;;;5021533;28;20443;-79
2023/02/23 08:43:53;;;;;;;60.40;38.80;;;11.10;99.90;;;;;;5022441;28;20432;-78
2023/02/23 08:46:22;;;;;;;56.90;39.00;;;11.10;99.90;;;;;;5019876;28;20473;-79
2023/02/23 08:48:49;;;;;;;62.07;39.27;;;11.20;99.90;;;;;;5029470;28;20466;-79
2023/02/23 08:51:16;;;;;;;60.03;39.47;;;11.20;99.90;;;;;;5029621;28;20452;-78
2023/02/23 08:53:44;;;;;;;58.17;38.47;;;11.20;99.90;;;;;;5029658;28;20479;-78
2023/02/23 08:56:11;;;;;;;64.30;40.70;;;11.30;99.90;;;;;;5026267;28;20471;-79
2023/02/23 08:58:38;;;;;;;59.27;37.10;;;11.30;99.90;;;;;;5019509;28;20523;-78
2023/02/23 09:01:05;;;;;;;59.67;39.50;;;11.30;99.90;;;;;;5020027;28;20458;-78
2023/02/23 09:03:35;;;;;;;59.73;39.53;;;11.40;99.90;;;;;;5020533;28;20424;-78
2023/02/23 09:06:08;;;;;;;55.83;38.80;;;11.40;99.90;;;;;;5017741;28;20482;-79
2023/02/23 09:08:34;;;;;;;55.73;38.63;;;11.40;99.90;;;;;;5017018;28;20822;-78
2023/02/23 09:11:02;;;;;;;59.23;37.80;;;11.50;99.90;;;;;;5017425;28;20428;-78
2023/02/23 09:13:29;;;;;;;56.10;36.73;;;11.50;99.90;;;;;;5016388;28;20491;-78
2023/02/23 09:15:56;;;;;;;61.07;37.70;;;11.50;99.90;;;;;;5016733;28;20479;-78
2023/02/23 09:18:26;;;;;;;59.20;38.07;;;11.60;99.90;;;;;;5017596;28;20447;-78
2023/02/23 09:20:53;;;;;;;59.03;38.53;;;11.60;99.90;;;;;;5016578;28;20443;-78
2023/02/23 09:23:20;;;;;;;59.83;36.73;;;11.70;99.90;;;;;;5016890;28;20447;-79
2023/02/23 09:25:47;;;;;;;60.80;38.10;;;11.70;99.90;;;;;;5016813;28;20475;-78
2023/02/23 09:28:17;;;;;;;61.37;38.90;;;11.70;99.90;;;;;;5016161;28;20912;-78
2023/02/23 09:30:46;;;;;;;56.77;36.63;;;11.70;99.90;;;;;;5017118;28;20432;-77
2023/02/23 09:33:13;;;;;;;62.10;38.33;;;11.70;99.90;;;;;;5016487;28;20839;-78
2023/02/23 09:35:40;;;;;;;55.33;36.73;;;11.80;99.90;;;;;;5016938;28;20436;-79
2023/02/23 09:38:08;;;;;;;55.60;36.43;;;11.70;99.90;;;;;;5016470;28;20484;-78
2023/02/23 09:40:44;;;;;;;58.73;37.60;;;11.70;99.90;;;;;;5019021;28;20518;-78
2023/02/23 09:43:14;;;;;;;54.97;35.30;;;11.60;99.90;;;;;;5017392;28;20434;-77
2023/02/23 09:45:49;;;;;;;62.43;36.87;;;11.60;99.90;;;;;;5015733;28;20435;-78
2023/02/23 09:48:20;;;;;;;58.90;36.13;;;11.50;99.90;;;;;;5016847;28;20439;-79
2023/02/23 09:50:49;;;;;;;55.47;34.63;;;11.50;99.90;;;;;;5018844;28;20436;-78
2023/02/23 09:53:36;;;;;;;54.23;33.67;;;11.40;99.90;;;;;;5018693;28;20471;-78
2023/02/23 09:56:09;;;;;;;61.00;38.07;;;11.40;99.90;;;;;;5019664;28;20479;-79
2023/02/23 09:58:36;;;;;;;52.07;32.43;;;11.40;99.90;;;;;;5020395;28;20495;-79
2023/02/23 10:01:38;;;;;;;55.40;35.40;;;11.40;99.90;;;;;;5020011;28;20438;-78
2023/02/23 10:04:09;;;;;;;56.73;34.67;;;11.40;99.90;;;;;;5011801;28;20490;-79
2023/02/23 10:06:36;;;;;;;54.13;34.20;;;11.40;99.90;;;;;;5018583;28;20590;-79
2023/02/23 10:09:13;;;;;;;55.00;34.47;;;11.40;99.90;;;;;;5017427;28;20439;-78
2023/02/23 10:11:45;;;;;;;49.00;31.17;;;11.40;99.90;;;;;;5016602;28;20431;-79
2023/02/23 10:14:33;;;;;;;49.47;32.03;;;11.40;99.90;;;;;;5016124;28;20479;-78
2023/02/23 10:17:16;;;;;;;51.87;31.37;;;11.30;99.90;;;;;;5016177;28;20542;-78
2023/02/23 10:19:53;;;;;;;48.93;29.73;;;11.30;99.90;;;;;;5015122;28;20455;-78
2023/02/23 10:22:21;;;;;;;50.30;30.00;;;11.30;99.90;;;;;;5015451;28;20438;-77
2023/02/23 10:24:55;;;;;;;52.47;32.93;;;11.30;99.90;;;;;;5015235;28;20920;-78
2023/02/23 10:27:30;;;;;;;54.23;30.27;;;11.30;99.90;;;;;;5015639;28;20474;-78
2023/02/23 10:30:00;;;;;;;52.60;31.80;;;11.30;99.90;;;;;;5020367;28;20438;-77
2023/02/23 10:32:38;;;;;;;50.37;32.33;;;11.30;99.90;;;;;;5030352;28;20478;-77
2023/02/23 10:35:11;;;;;;;51.27;30.43;;;11.30;99.90;;;;;;5019754;28;20432;-78
2023/02/23 10:37:38;;;;;;;55.20;33.40;;;11.30;99.90;;;;;;5016553;28;20498;-78
2023/02/23 10:40:06;;;;;;;57.97;38.07;;;11.30;99.90;;;;;;5014993;28;20482;-78
2023/02/23 10:42:33;;;;;;;58.17;36.00;;;11.40;99.90;;;;;;5014582;28;20554;-78
2023/02/23 10:45:00;;;;;;;55.80;32.80;;;11.40;99.90;;;;;;5014659;28;20454;-78
2023/02/23 10:47:32;;;;;;;58.27;35.80;;;11.40;99.90;;;;;;5014455;28;20478;-78
2023/02/23 10:50:06;;;;;;;64.17;37.33;;;11.30;99.90;;;;;;5014592;28;20454;-79
2023/02/23 10:52:40;;;;;;;60.80;37.67;;;11.20;99.90;;;;;;5015073;28;20513;-78
2023/02/23 10:55:22;;;;;;;60.90;37.10;;;11.10;99.90;;;;;;5016049;28;20802;-78
2023/02/23 10:57:51;;;;;;;68.27;39.30;;;11.00;99.90;;;;;;5016125;28;20475;-78
2023/02/23 11:00:31;;;;;;;60.80;36.60;;;10.90;99.90;;;;;;5014398;28;20471;-78
2023/02/23 11:03:02;;;;;;;61.20;35.23;;;10.80;99.90;;;;;;5015244;28;20530;-77
2023/02/23 11:05:33;;;;;;;71.43;37.73;;;10.90;99.90;;;;;;5017748;28;20858;-79
2023/02/23 11:08:30;;;;;;;65.87;34.97;;;10.90;99.90;;;;;;5017983;28;20489;-78
2023/02/23 11:11:03;;;;;;;56.23;33.70;;;10.90;99.90;;;;;;4994985;28;20467;-77
2023/02/23 11:13:39;;;;;;;51.83;32.60;;;10.80;99.90;;;;;;5018096;28;20467;-78
2023/02/23 11:16:09;;;;;;;56.27;33.80;;;10.80;99.90;;;;;;5019008;28;20478;-78
2023/02/23 11:18:40;;;;;;;53.83;31.60;;;10.90;99.90;;;;;;5018130;28;20920;-77
2023/02/23 11:21:12;;;;;;;55.70;31.63;;;11.00;99.90;;;;;;5017737;28;20439;-79
2023/02/23 11:23:40;;;;;;;47.73;29.80;;;11.10;99.90;;;;;;5018016;28;20451;-78
2023/02/23 11:26:27;;;;;;;59.43;33.57;;;11.20;99.90;;;;;;5017918;28;21022;-77
2023/02/23 11:28:56;;;;;;;47.07;28.30;;;11.30;99.90;;;;;;5018147;28;20562;-77
2023/02/23 11:31:30;;;;;;;51.93;30.10;;;11.40;99.90;;;;;;5018403;28;20450;-77
2023/02/23 11:33:59;;;;;;;50.00;31.27;;;11.60;99.90;;;;;;5017619;28;21025;-78
2023/02/23 11:36:29;;;;;;;48.57;28.53;;;11.60;99.90;;;;;;5018143;28;20474;-78
2023/02/23 11:39:06;;;;;;;48.10;30.00;;;11.70;99.90;;;;;;5017744;28;20455;-78
2023/02/23 11:41:36;;;;;;;50.00;31.57;;;11.60;99.90;;;;;;5018046;28;20439;-78
2023/02/23 11:44:03;;;;;;;49.97;30.57;;;11.60;99.90;;;;;;5017667;28;20944;-78
2023/02/23 11:46:32;;;;;;;46.87;30.80;;;11.60;99.90;;;;;;5018129;28;20484;-78
2023/02/23 11:49:04;;;;;;;60.37;33.87;;;11.60;99.90;;;;;;5018501;28;20436;-78
2023/02/23 11:51:33;;;;;;;51.93;33.33;;;11.60;99.90;;;;;;5018502;28;20440;-78
2023/02/23 11:54:02;;;;;;;54.80;33.33;;;11.50;99.90;;;;;;5018906;28;20874;-78
2023/02/23 11:56:31;;;;;;;56.83;34.07;;;11.40;99.90;;;;;;5017968;28;20506;-78
2023/02/23 11:59:02;;;;;;;59.07;34.23;;;11.50;99.90;;;;;;5018481;28;20919;-77
2023/02/23 12:01:42;;;;;;;60.83;36.60;;;11.50;99.90;;;;;;5017748;28;20446;-77
2023/02/23 12:04:23;;;;;;;48.30;29.73;;;11.50;99.90;;;;;;5017655;28;20467;-78
2023/02/23 12:06:51;;;;;;;50.70;29.30;;;11.50;99.90;;;;;;5018075;28;20489;-79
2023/02/23 12:09:23;;;;;;;43.30;27.23;;;11.50;99.90;;;;;;5018256;28;20451;-78
2023/02/23 12:11:57;;;;;;;47.00;28.17;;;11.40;99.90;;;;;;5017279;28;20432;-78
2023/02/23 12:14:32;;;;;;;48.67;29.60;;;11.30;99.90;;;;;;5018390;28;20482;-79
2023/02/23 12:17:06;;;;;;;47.50;31.10;;;11.20;99.90;;;;;;5018843;28;20483;-79
2023/02/23 12:19:37;;;;;;;42.87;25.00;;;11.20;99.90;;;;;;5018587;28;20939;-78
2023/02/23 12:22:10;;;;;;;46.60;32.03;;;11.10;99.90;;;;;;5018678;28;20463;-79
2023/02/23 12:24:48;;;;;;;48.53;29.63;;;11.10;99.90;;;;;;5017569;28;20436;-78
2023/02/23 12:27:17;;;;;;;41.07;28.17;;;11.10;99.90;;;;;;5016924;28;20471;-78
2023/02/23 12:29:59;;;;;;;43.90;27.17;;;11.20;99.90;;;;;;5016750;28;20439;-78
2023/02/23 12:32:35;;;;;;;42.13;26.20;;;11.30;99.90;;;;;;5016808;28;20439;-78
2023/02/23 12:35:10;;;;;;;37.20;24.20;;;11.50;99.90;;;;;;5016727;28;20474;-78
2023/02/23 12:37:42;;;;;;;30.67;20.47;;;11.60;99.90;;;;;;5018302;28;20481;-79
2023/02/23 12:40:16;;;;;;;31.90;19.93;;;11.70;99.90;;;;;;5017686;28;20436;-78
2023/02/23 12:42:50;;;;;;;28.13;19.90;;;11.80;99.90;;;;;;5017400;28;20478;-77
2023/02/23 12:45:23;;;;;;;32.80;19.80;;;11.80;99.90;;;;;;5016337;28;20432;-77
2023/02/23 12:47:59;;;;;;;27.87;18.10;;;11.80;99.90;;;;;;5015915;28;20996;-78
2023/02/23 12:50:31;;;;;;;28.00;20.23;;;11.80;99.90;;;;;;5016778;28;20427;-77
2023/02/23 12:53:05;;;;;;;25.30;17.80;;;11.80;99.90;;;;;;5016299;28;20486;-77
2023/02/23 12:55:40;;;;;;;26.50;16.77;;;11.80;99.90;;;;;;5016142;28;21182;-78
2023/02/23 12:58:20;;;;;;;23.27;16.27;;;11.80;99.90;;;;;;5016549;28;20443;-78
2023/02/23 13:00:55;;;;;;;25.43;17.67;;;11.80;99.90;;;;;;5016405;28;20538;-78
2023/02/23 13:03:52;;;;;;;28.67;18.50;;;11.80;99.90;;;;;;5017276;28;20970;-77
2023/02/23 13:06:29;;;;;;;26.77;17.17;;;11.80;99.90;;;;;;5016463;28;20881;-78
2023/02/23 13:09:11;;;;;;;26.37;17.47;;;11.80;99.90;;;;;;5016812;28;20825;-78
2023/02/23 13:11:52;;;;;;;27.67;18.60;;;11.80;99.90;;;;;;5016697;28;20953;-78
2023/02/23 13:14:25;;;;;;;27.23;18.40;;;11.80;99.90;;;;;;5017430;28;20476;-78
2023/02/23 13:16:56;;;;;;;27.33;18.40;;;11.80;99.90;;;;;;5019551;28;20468;-78
2023/02/23 13:19:29;;;;;;;27.77;17.90;;;12.00;99.90;;;;;;5019497;28;20431;-78
2023/02/23 13:22:08;;;;;;;27.97;18.43;;;12.10;99.90;;;;;;5019675;28;20934;-79
2023/02/23 13:24:37;;;;;;;26.70;16.60;;;12.40;99.90;;;;;;5020851;28;20428;-78
2023/02/23 13:27:15;;;;;;;25.73;18.10;;;12.70;99.90;;;;;;5021343;28;20894;-78
2023/02/23 13:29:43;;;;;;;27.40;17.27;;;13.10;99.90;;;;;;5021319;28;20440;-79
2023/02/23 13:32:14;;;;;;;23.97;17.80;;;14.00;99.90;;;;;;5020889;28;20879;-78
2023/02/23 13:34:44;;;;;;;23.77;18.10;;;15.10;97.10;;;;;;5021971;28;20476;-80
2023/02/23 13:37:16;;;;;;;23.70;17.80;;;16.20;94.80;;;;;;5021325;28;20475;-79
2023/02/23 13:39:48;;;;;;;22.40;17.30;;;17.00;92.40;;;;;;5018245;28;20866;-79
2023/02/23 13:42:26;;;;;;;24.10;18.10;;;17.30;88.80;;;;;;5015506;28;20439;-79
2023/02/23 13:45:01;;;;;;;22.17;17.50;;;17.40;86.50;;;;;;5015887;28;20442;-79
2023/02/23 13:47:39;;;;;;;24.33;18.37;;;17.30;84.90;;;;;;5015079;28;20497;-78
2023/02/23 13:50:21;;;;;;;24.43;18.03;;;17.10;85.40;;;;;;5017365;28;20443;-78
2023/02/23 13:53:06;;;;;;;25.97;19.30;;;16.80;84.50;;;;;;5023385;28;20447;-79
2023/02/23 13:55:44;;;;;;;26.17;18.70;;;16.30;84.70;;;;;;5021403;28;20423;-79
2023/02/23 13:58:14;;;;;;;28.13;18.10;;;15.90;85.60;;;;;;5021754;28;20427;-79
2023/02/23 14:00:42;;;;;;;22.67;17.57;;;15.50;87.90;;;;;;5022387;28;20458;-79
2023/02/23 14:03:22;;;;;;;27.30;20.33;;;15.10;89.70;;;;;;5022961;28;20935;-80
2023/02/23 14:06:00;;;;;;;27.37;19.93;;;14.70;91.00;;;;;;5022184;28;20494;-80